Time;durP1;ratioP1;P1;durP2;ratioP2;P2;SDS_P1;SDS_P2;PMS_P1;PMS_P2;Temp;Humidity;BMP_temperature;BMP_pressure;BME280_temperature;BME280_humidity;BME280_pressure;Samples;Min_cycle;Max_cycle;Signal;HPM_P1;HPM_P2
2023/04/30 00:00:37;;;;;;;0.10;0.10;;;;;;;5.03;69.70;100104.72;5120404;27;20058;-73
2023/04/30 00:03:04;;;;;;;0.20;0.20;;;;;;;4.94;70.25;100110.44;5092921;28;20051;-73
2023/04/30 00:05:30;;;;;;;0.20;0.20;;;;;;;4.92;70.63;100114.47;5121744;27;20043;-73
2023/04/30 00:07:57;;;;;;;0.25;0.20;;;;;;;4.88;70.93;100110.53;5125004;27;20043;-75
2023/04/30 00:10:23;;;;;;;0.52;0.20;;;;;;;4.90;70.86;100114.69;5123928;27;20043;-75
2023/04/30 00:12:49;;;;;;;0.10;0.10;;;;;;;4.90;70.61;100119.25;5111646;27;20123;-75
2023/04/30 00:15:15;;;;;;;0.20;0.10;;;;;;;4.85;70.84;100111.84;5106627;27;20145;-76
2023/04/30 00:17:43;;;;;;;0.10;0.10;;;;;;;4.87;71.04;100125.97;5092375;27;20490;-76
2023/04/30 00:20:11;;;;;;;0.10;0.10;;;;;;;4.89;71.36;100125.75;5125080;27;20047;-75
2023/04/30 00:22:37;;;;;;;;;;;;;;;4.89;70.94;100128.44;5114465;27;20049;-75
2023/04/30 00:25:04;;;;;;;0.10;0.10;;;;;;;4.88;70.68;100119.50;5102153;27;19937;-76
2023/04/30 00:27:30;;;;;;;0.10;0.10;;;;;;;4.92;70.81;100119.88;5119188;27;20059;-76
2023/04/30 00:29:57;;;;;;;0.20;0.10;;;;;;;4.88;70.74;100130.34;5079236;27;20046;-76
2023/04/30 00:32:23;;;;;;;0.10;0.10;;;;;;;4.79;71.36;100132.53;5116780;27;20055;-75
2023/04/30 00:34:51;;;;;;;0.15;0.15;;;;;;;4.73;71.83;100135.34;5112646;27;20061;-76
2023/04/30 00:37:17;;;;;;;;;;;;;;;4.66;72.04;100130.81;5106095;28;20073;-75
2023/04/30 00:39:43;;;;;;;0.25;0.10;;;;;;;4.60;72.03;100139.03;5125770;27;20389;-75
2023/04/30 00:42:09;;;;;;;0.10;0.10;;;;;;;4.55;72.42;100142.44;5118723;27;20047;-76
2023/04/30 00:44:35;;;;;;;0.10;0.10;;;;;;;4.48;72.96;100137.09;5120869;27;20120;-76
2023/04/30 00:47:02;;;;;;;0.10;0.10;;;;;;;4.44;73.29;100146.69;5114552;27;20047;-76
2023/04/30 00:49:28;;;;;;;0.15;0.15;;;;;;;4.40;73.37;100140.09;5114787;27;20042;-75
2023/04/30 00:51:56;;;;;;;0.10;0.10;;;;;;;4.35;73.79;100138.03;5117546;27;20081;-76
2023/04/30 00:54:24;;;;;;;0.30;0.20;;;;;;;4.28;74.04;100133.75;5118392;27;20513;-76
2023/04/30 00:56:50;;;;;;;0.10;0.10;;;;;;;4.24;74.44;100128.00;5108062;27;20066;-75
2023/04/30 00:59:17;;;;;;;0.10;0.10;;;;;;;4.25;74.54;100129.63;5113657;28;20084;-75
2023/04/30 01:01:44;;;;;;;0.13;0.10;;;;;;;4.26;74.43;100132.09;5094603;28;20047;-75
2023/04/30 01:04:11;;;;;;;0.10;0.10;;;;;;;4.27;74.54;100132.94;5121681;28;20071;-75
2023/04/30 01:06:38;;;;;;;0.10;0.10;;;;;;;4.25;74.54;100135.06;5112829;28;20146;-75
2023/04/30 01:09:06;;;;;;;0.10;0.10;;;;;;;4.19;74.46;100115.13;5087716;28;20058;-76
2023/04/30 01:11:47;;;;;;;0.10;0.10;;;;;;;4.24;74.70;100126.09;5090228;28;20487;-75
2023/04/30 01:14:20;;;;;;;0.20;0.20;;;;;;;4.27;74.85;100141.06;5122870;28;20051;-75
2023/04/30 01:16:54;;;;;;;0.10;0.10;;;;;;;4.21;74.71;100134.66;5112996;28;20073;-75
2023/04/30 01:19:36;;;;;;;0.20;0.20;;;;;;;4.23;74.79;100135.25;5118042;28;20051;-76
2023/04/30 01:22:04;;;;;;;0.10;0.10;;;;;;;4.25;74.85;100138.56;5119443;28;20083;-75
2023/04/30 01:25:00;;;;;;;0.10;0.10;;;;;;;4.22;74.77;100143.63;5106396;28;20064;-75
2023/04/30 01:27:40;;;;;;;0.20;0.20;;;;;;;4.19;75.01;100138.63;5100245;28;20221;-75
2023/04/30 01:30:08;;;;;;;0.10;0.10;;;;;;;4.19;75.12;100133.22;5067675;28;20044;-75
2023/04/30 01:32:34;;;;;;;0.20;0.20;;;;;;;4.16;75.08;100139.94;5110732;28;20047;-75
2023/04/30 01:35:00;;;;;;;0.10;0.10;;;;;;;4.14;75.26;100143.91;5075861;28;20043;-75
2023/04/30 01:37:33;;;;;;;0.10;0.10;;;;;;;4.10;75.49;100133.53;5087229;28;20047;-75
2023/04/30 01:40:21;;;;;;;0.10;0.10;;;;;;;4.08;75.51;100130.22;5105489;28;20074;-75
2023/04/30 01:42:59;;;;;;;0.10;0.10;;;;;;;4.13;75.51;100134.94;5105682;28;20059;-76
2023/04/30 01:45:47;;;;;;;0.20;0.20;;;;;;;4.16;75.72;100145.34;5104733;28;20043;-75
2023/04/30 01:48:21;;;;;;;0.10;0.10;;;;;;;4.16;75.56;100141.81;5107104;28;20035;-76
2023/04/30 01:50:50;;;;;;;0.10;0.10;;;;;;;4.13;75.98;100142.25;5111830;27;20043;-75
2023/04/30 01:53:21;;;;;;;0.10;0.10;;;;;;;4.10;76.15;100141.66;5072460;27;20421;-75
2023/04/30 01:55:54;;;;;;;0.10;0.10;;;;;;;4.09;76.32;100140.00;5112416;27;20621;-75
2023/04/30 01:58:22;;;;;;;0.10;0.10;;;;;;;4.09;76.44;100145.41;5112979;27;20047;-75
2023/04/30 02:00:51;;;;;;;0.20;0.20;;;;;;;4.08;76.39;100134.78;5104002;28;20104;-75
2023/04/30 02:03:17;;;;;;;0.10;0.10;;;;;;;4.10;76.65;100141.66;5085185;27;20047;-73
2023/04/30 02:05:43;;;;;;;0.10;0.10;;;;;;;3.97;77.21;100118.25;5129703;27;20047;-73
2023/04/30 02:08:10;;;;;;;0.10;0.10;;;;;;;4.08;77.02;100129.38;5094940;27;20062;-73
2023/04/30 02:10:36;;;;;;;0.17;0.17;;;;;;;4.11;77.03;100129.78;5111688;27;20053;-73
2023/04/30 02:13:02;;;;;;;0.10;0.10;;;;;;;4.12;77.11;100133.28;5071185;27;20141;-74
2023/04/30 02:15:29;;;;;;;0.63;0.20;;;;;;;4.15;77.21;100116.63;5123986;27;20043;-73
2023/04/30 02:17:57;;;;;;;0.10;0.10;;;;;;;4.18;77.16;100123.44;5098565;27;20039;-73
2023/04/30 02:20:23;;;;;;;;;;;;;;;4.22;77.04;100121.97;5089464;28;20138;-73
2023/04/30 02:22:49;;;;;;;0.10;0.10;;;;;;;4.24;76.85;100122.56;5123426;27;20457;-73
2023/04/30 02:25:16;;;;;;;0.15;0.15;;;;;;;4.25;76.61;100110.69;5125654;27;20096;-73
2023/04/30 02:27:42;;;;;;;0.20;0.20;;;;;;;4.32;76.72;100118.75;5118069;27;20058;-73
2023/04/30 02:30:09;;;;;;;0.20;0.20;;;;;;;4.36;76.67;100120.75;5111847;27;20063;-73
2023/04/30 02:32:35;;;;;;;0.20;0.20;;;;;;;4.36;76.80;100101.78;5097073;27;20574;-73
2023/04/30 02:35:04;;;;;;;0.43;0.20;;;;;;;4.42;76.73;100102.78;5106303;27;20087;-73
2023/04/30 02:37:31;;;;;;;0.13;0.13;;;;;;;4.48;76.55;100103.75;5109560;27;20055;-73
2023/04/30 02:39:57;;;;;;;0.10;0.10;;;;;;;4.53;76.26;100098.50;5089777;27;20062;-73
2023/04/30 02:42:25;;;;;;;0.10;0.10;;;;;;;4.60;76.03;100101.94;5104590;27;20571;-74
2023/04/30 02:44:51;;;;;;;0.20;0.20;;;;;;;4.60;75.85;100088.41;5118484;27;20051;-73
2023/04/30 02:47:17;;;;;;;0.20;0.20;;;;;;;4.68;75.82;100085.38;5109245;27;20104;-74
2023/04/30 02:49:44;;;;;;;0.10;0.10;;;;;;;4.76;75.52;100088.81;5124388;27;20064;-73
2023/04/30 02:52:12;;;;;;;;;;;;;;;4.82;75.20;100087.88;5108992;27;20053;-73
2023/04/30 02:54:38;;;;;;;;;;;;;;;4.87;75.04;100085.34;5126897;27;19991;-74
2023/04/30 02:57:05;;;;;;;0.10;0.10;;;;;;;4.90;74.50;100086.75;5111343;27;20382;-74
2023/04/30 02:59:32;;;;;;;0.10;0.10;;;;;;;4.93;74.66;100084.41;5090808;27;20093;-73
2023/04/30 03:01:58;;;;;;;0.20;0.20;;;;;;;4.99;74.64;100087.25;5084415;27;20048;-73
2023/04/30 03:04:25;;;;;;;0.28;0.28;;;;;;;5.05;74.63;100089.84;5120487;27;20052;-74
2023/04/30 03:06:51;;;;;;;0.20;0.20;;;;;;;5.09;74.42;100087.53;5115845;27;20075;-73
2023/04/30 03:09:19;;;;;;;0.20;0.20;;;;;;;5.16;74.19;100088.25;5080872;27;20391;-73
2023/04/30 03:11:45;;;;;;;0.20;0.20;;;;;;;5.21;74.31;100090.25;5074375;27;20044;-73
2023/04/30 03:14:12;;;;;;;0.20;0.20;;;;;;;5.26;74.11;100090.41;5119171;27;20039;-73
2023/04/30 03:16:38;;;;;;;0.20;0.20;;;;;;;5.35;74.03;100085.47;5093683;27;20138;-73
2023/04/30 03:19:04;;;;;;;0.20;0.20;;;;;;;5.41;73.77;100079.09;5109198;27;20047;-73
2023/04/30 03:21:31;;;;;;;0.20;0.20;;;;;;;5.49;73.61;100078.78;5107400;27;20597;-73
2023/04/30 03:23:57;;;;;;;0.20;0.20;;;;;;;5.56;73.49;100097.66;5114704;27;20039;-74
2023/04/30 03:26:26;;;;;;;0.20;0.20;;;;;;;5.65;73.39;100092.69;5096668;27;20043;-73
2023/04/30 03:28:54;;;;;;;0.28;0.22;;;;;;;5.68;73.87;100094.94;5127950;27;20054;-73
2023/04/30 03:31:21;;;;;;;0.30;0.30;;;;;;;5.69;73.93;100091.16;5123763;27;20053;-74
2023/04/30 03:33:48;;;;;;;0.43;0.28;;;;;;;5.71;73.79;100085.50;5114911;27;20046;-74
2023/04/30 03:36:14;;;;;;;0.20;0.20;;;;;;;5.69;73.62;100083.03;5088206;27;20050;-73
2023/04/30 03:38:41;;;;;;;0.20;0.20;;;;;;;5.70;73.32;100079.25;5094818;27;20047;-74
2023/04/30 03:41:08;;;;;;;0.30;0.30;;;;;;;5.67;73.53;100074.31;5076719;28;20056;-73
2023/04/30 03:43:35;;;;;;;0.20;0.20;;;;;;;5.65;73.46;100074.53;5114707;27;20052;-73
2023/04/30 03:46:02;;;;;;;0.20;0.20;;;;;;;5.71;73.58;100072.75;5115766;27;20115;-73
2023/04/30 03:48:28;;;;;;;0.30;0.30;;;;;;;5.79;73.16;100077.00;5123242;27;20043;-73
2023/04/30 03:50:54;;;;;;;0.22;0.20;;;;;;;5.75;73.00;100065.78;5117456;27;20043;-73
2023/04/30 03:53:21;;;;;;;0.20;0.20;;;;;;;5.76;72.74;100061.22;5119460;27;20057;-74
2023/04/30 03:55:48;;;;;;;0.20;0.20;;;;;;;5.79;72.90;100058.00;5123095;27;20059;-73
2023/04/30 03:58:15;;;;;;;0.20;0.20;;;;;;;5.88;72.56;100056.59;5107618;27;20059;-74
2023/04/30 04:00:44;;;;;;;0.20;0.20;;;;;;;5.95;72.23;100054.56;5106461;27;20070;-74
2023/04/30 04:03:11;;;;;;;0.30;0.30;;;;;;;5.98;71.81;100047.84;5113524;27;20262;-73
2023/04/30 04:05:38;;;;;;;0.20;0.20;;;;;;;6.11;71.67;100057.66;5093234;27;20047;-73
2023/04/30 04:08:05;;;;;;;0.30;0.30;;;;;;;6.24;71.59;100057.41;5108765;27;20043;-73
2023/04/30 04:10:32;;;;;;;0.30;0.30;;;;;;;6.32;71.02;100050.75;5123535;27;20051;-73
2023/04/30 04:12:58;;;;;;;0.20;0.20;;;;;;;6.40;70.69;100049.56;5109955;27;20049;-73
2023/04/30 04:15:25;;;;;;;0.20;0.20;;;;;;;6.50;70.52;100048.94;5117756;27;20051;-73
2023/04/30 04:17:53;;;;;;;0.20;0.20;;;;;;;6.56;70.41;100058.00;5109325;27;20081;-73
2023/04/30 04:20:19;;;;;;;;;;;;;;;6.61;70.26;100048.06;5102443;27;20043;-73
2023/04/30 04:22:46;;;;;;;0.30;0.30;;;;;;;6.65;69.85;100051.94;5119086;27;19969;-73
2023/04/30 04:25:12;;;;;;;0.30;0.30;;;;;;;6.70;69.79;100050.38;5111834;27;20118;-74
2023/04/30 04:27:39;;;;;;;0.28;0.28;;;;;;;6.72;69.71;100040.13;5089705;27;20039;-74
2023/04/30 04:30:07;;;;;;;0.30;0.30;;;;;;;6.83;69.56;100041.13;5118084;27;20074;-73
2023/04/30 04:32:40;;;;;;;0.20;0.20;;;;;;;6.91;69.52;100046.16;5111847;27;20055;-73
2023/04/30 04:35:09;;;;;;;0.20;0.20;;;;;;;7.06;68.88;100048.34;5093025;28;20035;-76
2023/04/30 04:37:37;;;;;;;0.47;0.30;;;;;;;7.13;68.47;100043.56;5111208;27;20047;-76
2023/04/30 04:40:04;;;;;;;0.20;0.20;;;;;;;7.23;68.28;100040.19;5122481;27;20521;-75
2023/04/30 04:42:31;;;;;;;0.20;0.20;;;;;;;7.35;67.65;100040.94;5104033;27;20347;-75
2023/04/30 04:44:57;;;;;;;0.20;0.20;;;;;;;7.44;67.15;100045.97;5077230;27;20039;-75
2023/04/30 04:47:25;;;;;;;0.20;0.20;;;;;;;7.51;66.36;100041.16;5093181;28;20065;-76
2023/04/30 04:49:52;;;;;;;0.20;0.20;;;;;;;7.56;66.13;100040.44;5104067;27;20352;-75
2023/04/30 04:52:19;;;;;;;0.20;0.20;;;;;;;7.62;65.24;100039.44;5106735;27;20048;-75
2023/04/30 04:54:46;;;;;;;0.25;0.25;;;;;;;7.66;64.90;100041.41;5119003;27;20043;-75
2023/04/30 04:57:12;;;;;;;0.20;0.20;;;;;;;7.74;64.62;100048.31;5106637;27;20473;-75
2023/04/30 04:59:38;;;;;;;0.28;0.28;;;;;;;7.79;64.05;100039.41;5110310;27;20051;-75
2023/04/30 05:02:04;;;;;;;0.30;0.30;;;;;;;7.91;64.05;100044.75;5105975;28;20465;-75
2023/04/30 05:04:31;;;;;;;0.20;0.20;;;;;;;8.03;63.59;100034.56;5120394;28;20059;-75
2023/04/30 05:06:57;;;;;;;0.20;0.20;;;;;;;8.12;62.93;100029.50;5086895;28;20048;-76
2023/04/30 05:09:24;;;;;;;0.52;0.30;;;;;;;8.32;62.17;100042.56;5119307;28;20569;-76
2023/04/30 05:11:50;;;;;;;;;;;;;;;8.44;61.83;100045.16;5096599;28;20076;-75
2023/04/30 05:14:17;;;;;;;0.30;0.30;;;;;;;8.53;61.21;100036.56;5104873;28;19923;-76
2023/04/30 05:16:44;;;;;;;0.20;0.20;;;;;;;8.62;60.92;100029.56;5093342;28;20051;-76
2023/04/30 05:19:10;;;;;;;0.20;0.20;;;;;;;8.71;60.34;100024.47;5103835;28;20071;-76
2023/04/30 05:21:36;;;;;;;0.20;0.20;;;;;;;8.83;59.47;100021.63;5115007;28;20047;-76
2023/04/30 05:24:03;;;;;;;0.20;0.20;;;;;;;8.86;58.98;100021.09;5116166;28;20230;-76
2023/04/30 05:26:31;;;;;;;0.28;0.28;;;;;;;8.91;58.52;100026.59;5071663;27;20051;-76
2023/04/30 05:28:57;;;;;;;0.30;0.30;;;;;;;8.98;57.98;100019.03;5128371;27;20521;-76
2023/04/30 05:31:23;;;;;;;0.30;0.30;;;;;;;8.99;57.36;100023.41;5116584;27;20039;-75
2023/04/30 05:33:50;;;;;;;0.30;0.30;;;;;;;8.98;57.25;100018.19;5120105;27;20111;-75
2023/04/30 05:36:16;;;;;;;0.20;0.20;;;;;;;9.03;57.05;100029.97;5126394;27;20050;-76
2023/04/30 05:38:43;;;;;;;0.20;0.20;;;;;;;9.10;56.85;100026.19;5122073;27;20055;-75
2023/04/30 05:41:10;;;;;;;0.20;0.20;;;;;;;9.22;56.61;100024.97;5119273;27;20047;-76
2023/04/30 05:43:38;;;;;;;0.20;0.20;;;;;;;9.34;56.23;100013.03;5121180;27;20556;-75
2023/04/30 05:46:05;;;;;;;;;;;;;;;9.42;56.02;100009.81;5126387;27;20073;-76
2023/04/30 05:48:31;;;;;;;0.20;0.20;;;;;;;9.55;55.68;100005.81;5109440;27;20434;-76
2023/04/30 05:50:57;;;;;;;0.20;0.20;;;;;;;9.69;55.20;100005.34;5121248;27;20050;-75
2023/04/30 05:53:24;;;;;;;0.25;0.25;;;;;;;9.80;55.01;100015.25;5092148;27;20069;-75
2023/04/30 05:55:50;;;;;;;0.57;0.30;;;;;;;9.87;54.65;100017.75;5119490;27;20059;-74
2023/04/30 05:58:16;;;;;;;0.20;0.20;;;;;;;9.97;54.22;100015.06;5111429;27;20486;-75
2023/04/30 06:00:48;;;;;;;0.20;0.20;;;;;;;10.15;53.55;100012.97;5126339;27;20751;-75
2023/04/30 06:03:14;;;;;;;0.20;0.20;;;;;;;10.28;53.36;100017.13;5092541;27;20043;-75
2023/04/30 06:05:40;;;;;;;0.30;0.30;;;;;;;10.45;52.99;100016.91;5113600;27;20078;-76
2023/04/30 06:08:07;;;;;;;0.20;0.20;;;;;;;10.67;52.19;100021.38;5125794;27;20574;-75
2023/04/30 06:10:33;;;;;;;0.30;0.30;;;;;;;10.88;51.38;100025.78;5108621;27;20053;-75
2023/04/30 06:13:00;;;;;;;0.30;0.30;;;;;;;11.07;50.58;100026.06;5108879;27;20540;-75
2023/04/30 06:15:26;;;;;;;0.20;0.20;;;;;;;11.19;50.04;100031.28;5125778;27;20047;-76
2023/04/30 06:17:54;;;;;;;0.30;0.30;;;;;;;11.25;49.56;100036.78;5107157;27;20603;-76
2023/04/30 06:20:20;;;;;;;0.30;0.30;;;;;;;11.29;49.62;100030.44;5120879;27;20572;-75
2023/04/30 06:22:46;;;;;;;0.20;0.20;;;;;;;11.32;48.91;100029.94;5093816;27;20048;-73
2023/04/30 06:25:13;;;;;;;0.20;0.20;;;;;;;11.42;49.17;100025.53;5123670;27;20031;-73
2023/04/30 06:27:39;;;;;;;0.20;0.20;;;;;;;11.55;48.59;100022.22;5113562;27;20048;-73
2023/04/30 06:30:06;;;;;;;0.20;0.20;;;;;;;11.73;47.73;100026.31;5091407;27;20558;-75
2023/04/30 06:32:33;;;;;;;0.30;0.30;;;;;;;11.73;47.30;100028.22;5109670;27;20043;-75
2023/04/30 06:35:01;;;;;;;0.30;0.30;;;;;;;11.76;46.70;100023.03;5123094;27;20050;-75
2023/04/30 06:37:34;;;;;;;0.20;0.20;;;;;;;11.81;46.59;100015.88;5104332;27;20046;-75
2023/04/30 06:40:00;;;;;;;0.20;0.20;;;;;;;11.95;45.84;100011.47;5121255;27;20450;-76
2023/04/30 06:42:33;;;;;;;0.30;0.30;;;;;;;11.97;45.69;100020.22;5125015;27;20059;-76
2023/04/30 06:45:02;;;;;;;0.20;0.20;;;;;;;11.99;45.50;100020.75;5092465;27;20047;-76
2023/04/30 06:47:36;;;;;;;0.30;0.30;;;;;;;12.07;45.35;100013.91;5122596;27;20086;-77
2023/04/30 06:50:05;;;;;;;0.30;0.30;;;;;;;12.27;45.11;100002.03;5114624;27;20116;-76
2023/04/30 06:52:32;;;;;;;0.28;0.28;;;;;;;12.48;44.84;100010.16;5122576;27;20445;-74
2023/04/30 06:54:58;;;;;;;0.20;0.20;;;;;;;12.75;43.86;100014.41;5110757;27;20055;-74
2023/04/30 06:57:24;;;;;;;0.20;0.20;;;;;;;12.69;43.61;100001.84;5122850;27;20514;-74
2023/04/30 06:59:51;;;;;;;0.20;0.20;;;;;;;12.68;43.17;100000.19;5092999;27;20051;-74
2023/04/30 07:02:17;;;;;;;0.30;0.30;;;;;;;12.72;41.99;99979.31;5127615;27;20096;-73
2023/04/30 07:04:44;;;;;;;0.30;0.30;;;;;;;12.59;40.56;99984.31;5115249;27;20058;-74
2023/04/30 07:07:11;;;;;;;0.30;0.30;;;;;;;12.45;40.57;99992.38;5091448;27;20430;-74
2023/04/30 07:09:37;;;;;;;0.30;0.30;;;;;;;12.46;40.49;99982.19;5117253;27;20058;-74
2023/04/30 07:12:04;;;;;;;0.30;0.30;;;;;;;12.48;40.80;99975.34;5110008;27;20507;-73
2023/04/30 07:14:30;;;;;;;0.20;0.20;;;;;;;12.54;40.75;99975.31;5126003;27;20043;-74
2023/04/30 07:16:56;;;;;;;0.30;0.30;;;;;;;12.71;40.81;99978.47;5109534;27;20061;-74
2023/04/30 07:19:25;;;;;;;0.30;0.30;;;;;;;12.81;40.25;99974.88;5116342;27;20524;-75
2023/04/30 07:21:51;;;;;;;0.30;0.30;;;;;;;12.85;40.01;99970.44;5108582;27;20111;-74
2023/04/30 07:24:19;;;;;;;0.30;0.30;;;;;;;12.66;39.81;99962.06;5123258;27;20101;-74
2023/04/30 07:26:46;;;;;;;0.30;0.30;;;;;;;12.52;40.07;99967.38;5123407;27;20051;-74
2023/04/30 07:29:12;;;;;;;0.30;0.30;;;;;;;12.42;40.28;99953.72;5125446;27;20134;-74
2023/04/30 07:31:38;;;;;;;0.43;0.30;;;;;;;12.57;40.16;99945.38;5109860;27;20130;-74
2023/04/30 07:34:05;;;;;;;0.30;0.30;;;;;;;12.83;39.89;99949.88;5072575;27;20510;-73
2023/04/30 07:36:31;;;;;;;0.40;0.40;;;;;;;12.80;39.74;99940.31;5112282;27;20055;-74
2023/04/30 07:38:58;;;;;;;0.30;0.30;;;;;;;12.67;40.28;99941.75;5107273;27;20122;-74
2023/04/30 07:41:25;;;;;;;0.30;0.30;;;;;;;12.68;40.33;99940.66;5119558;27;20067;-73
2023/04/30 07:43:52;;;;;;;0.30;0.30;;;;;;;12.69;40.27;99933.25;5113277;27;20404;-73
2023/04/30 07:46:18;;;;;;;0.20;0.20;;;;;;;12.71;40.64;99923.59;5113690;27;20051;-74
2023/04/30 07:48:45;;;;;;;0.30;0.30;;;;;;;12.75;40.54;99918.38;5091744;28;20134;-76
2023/04/30 07:51:11;;;;;;;0.30;0.30;;;;;;;12.87;40.41;99912.50;5117822;27;20054;-76
2023/04/30 07:53:37;;;;;;;0.20;0.20;;;;;;;12.94;40.48;99891.06;5117692;27;20305;-76
2023/04/30 07:56:04;;;;;;;0.30;0.30;;;;;;;12.97;40.48;99879.50;5102038;27;20059;-76
2023/04/30 07:58:32;;;;;;;0.30;0.30;;;;;;;12.94;40.85;99876.50;5098143;27;20549;-76
2023/04/30 08:00:58;;;;;;;;;;;;;;;12.94;40.89;99877.34;5123090;27;20300;-75
2023/04/30 08:03:24;;;;;;;0.20;0.20;;;;;;;12.82;41.00;99876.91;5121547;27;19923;-75
2023/04/30 08:05:51;;;;;;;0.20;0.20;;;;;;;12.76;41.10;99884.34;5111028;27;20143;-76
2023/04/30 08:08:18;;;;;;;0.30;0.30;;;;;;;12.74;40.94;99875.59;5113105;27;20040;-76
2023/04/30 08:10:44;;;;;;;0.20;0.20;;;;;;;12.64;40.85;99873.75;5112269;27;20043;-77
2023/04/30 08:13:15;;;;;;;0.22;0.22;;;;;;;12.59;40.96;99860.09;5122439;27;20419;-75
2023/04/30 08:15:43;;;;;;;0.20;0.20;;;;;;;12.60;41.21;99859.00;5109675;27;20248;-75
2023/04/30 08:18:10;;;;;;;0.30;0.30;;;;;;;12.66;41.08;99841.38;5109346;27;20125;-75
2023/04/30 08:20:36;;;;;;;0.20;0.20;;;;;;;12.56;40.87;99825.81;5107510;27;20092;-75
2023/04/30 08:23:03;;;;;;;0.22;0.22;;;;;;;12.51;40.94;99823.13;5111463;27;20062;-76
2023/04/30 08:25:33;;;;;;;0.30;0.30;;;;;;;12.40;40.71;99819.63;5097463;27;20108;-75
2023/04/30 08:28:00;;;;;;;0.30;0.30;;;;;;;12.30;40.43;99820.53;5124847;27;20366;-75
2023/04/30 08:30:26;;;;;;;0.20;0.20;;;;;;;12.26;40.37;99815.94;5120925;27;20073;-76
2023/04/30 08:32:55;;;;;;;0.30;0.20;;;;;;;12.36;40.32;99821.31;5094593;27;20042;-76
2023/04/30 08:35:21;;;;;;;0.20;0.20;;;;;;;12.45;39.83;99813.28;5097997;27;20155;-75
2023/04/30 08:37:48;;;;;;;0.20;0.20;;;;;;;12.46;39.62;99810.28;5117351;27;20051;-75
2023/04/30 08:40:15;;;;;;;0.20;0.20;;;;;;;12.50;39.50;99805.03;5119355;27;20120;-76
2023/04/30 08:42:49;;;;;;;0.22;0.22;;;;;;;12.52;39.15;99791.88;5109175;27;20526;-75
2023/04/30 08:45:15;;;;;;;0.30;0.30;;;;;;;12.50;39.11;99799.56;5120144;27;20119;-75
2023/04/30 08:47:43;;;;;;;0.30;0.30;;;;;;;12.44;38.89;99792.47;5117653;27;20039;-75
2023/04/30 08:50:11;;;;;;;0.20;0.20;;;;;;;12.38;38.81;99796.38;5120123;27;20043;-74
2023/04/30 08:52:39;;;;;;;0.30;0.30;;;;;;;12.28;38.81;99778.88;5121572;27;20046;-74
2023/04/30 08:55:07;;;;;;;0.30;0.30;;;;;;;12.34;39.14;99782.41;5121890;27;20071;-75
2023/04/30 08:57:35;;;;;;;0.20;0.20;;;;;;;12.20;39.24;99785.00;4744924;27;10000124;-75
2023/04/30 09:00:02;;;;;;;0.30;0.30;;;;;;;12.20;39.32;99772.09;5118218;27;20109;-74
2023/04/30 09:02:31;;;;;;;0.20;0.20;;;;;;;12.10;39.44;99774.94;5113499;27;20047;-75
2023/04/30 09:04:58;;;;;;;0.20;0.20;;;;;;;11.98;39.84;99758.00;5106723;28;20046;-75
2023/04/30 09:07:27;;;;;;;0.20;0.20;;;;;;;11.95;39.81;99762.13;5110234;28;20058;-75
2023/04/30 09:09:54;;;;;;;0.20;0.20;;;;;;;11.94;40.17;99765.97;5119948;28;20079;-75
2023/04/30 09:12:21;;;;;;;0.20;0.20;;;;;;;11.90;39.98;99754.75;5109681;28;20130;-75
2023/04/30 09:14:58;;;;;;;0.20;0.20;;;;;;;11.89;40.28;99752.31;5098909;28;20340;-75
2023/04/30 09:17:26;;;;;;;0.30;0.30;;;;;;;11.90;40.01;99748.47;5071954;28;20047;-75
2023/04/30 09:19:52;;;;;;;0.20;0.20;;;;;;;11.86;40.19;99744.63;5118174;28;20046;-76
2023/04/30 09:22:19;;;;;;;0.20;0.20;;;;;;;11.93;40.39;99742.41;5116991;27;20459;-76
2023/04/30 09:24:50;;;;;;;0.20;0.20;;;;;;;12.05;40.22;99731.94;5107633;28;20534;-74
2023/04/30 09:27:21;;;;;;;0.20;0.20;;;;;;;12.21;39.93;99737.28;5084598;28;20047;-74
2023/04/30 09:29:51;;;;;;;0.20;0.20;;;;;;;12.30;39.49;99738.28;5116461;28;20046;-74
2023/04/30 09:32:18;;;;;;;0.20;0.20;;;;;;;12.45;39.29;99731.03;5109081;28;20184;-74
2023/04/30 09:34:44;;;;;;;0.20;0.20;;;;;;;12.52;39.06;99717.81;5091440;28;20054;-73
2023/04/30 09:37:11;;;;;;;0.20;0.20;;;;;;;12.51;38.68;99723.56;5119794;28;20340;-74
2023/04/30 09:39:49;;;;;;;0.20;0.20;;;;;;;12.54;38.89;99725.75;5120242;27;20050;-74
2023/04/30 09:42:18;;;;;;;0.20;0.20;;;;;;;12.51;38.90;99712.59;5118230;27;20108;-76
2023/04/30 09:44:44;;;;;;;0.28;0.28;;;;;;;12.50;38.91;99711.81;5111834;28;20043;-76
2023/04/30 09:47:13;;;;;;;0.28;0.28;;;;;;;12.45;38.85;99695.38;5119778;28;20039;-74
2023/04/30 09:49:41;;;;;;;0.20;0.20;;;;;;;12.51;38.91;99690.66;5114900;28;20050;-75
2023/04/30 09:52:08;;;;;;;0.25;0.25;;;;;;;12.48;39.08;99689.31;5090995;28;20043;-74
2023/04/30 09:54:35;;;;;;;0.30;0.30;;;;;;;12.40;38.75;99689.97;5109152;28;20058;-74
2023/04/30 09:57:03;;;;;;;0.20;0.20;;;;;;;12.34;38.82;99689.19;5096278;28;20093;-75
2023/04/30 09:59:31;;;;;;;0.20;0.20;;;;;;;12.30;39.42;99686.22;5088691;28;20092;-74
2023/04/30 10:02:00;;;;;;;0.20;0.20;;;;;;;12.28;39.02;99693.91;5118971;28;20044;-74
2023/04/30 10:04:29;;;;;;;0.30;0.30;;;;;;;12.26;38.99;99684.34;5104299;28;20050;-74
2023/04/30 10:07:01;;;;;;;0.20;0.20;;;;;;;12.11;39.28;99677.06;5113498;28;20039;-74
2023/04/30 10:09:35;;;;;;;0.20;0.20;;;;;;;12.08;39.17;99675.72;5111514;28;20051;-74
2023/04/30 10:12:12;;;;;;;0.20;0.20;;;;;;;12.08;39.10;99681.19;5111350;27;20172;-74
2023/04/30 10:14:39;;;;;;;0.20;0.20;;;;;;;12.10;39.21;99687.25;5096028;27;20048;-74
2023/04/30 10:17:11;;;;;;;0.20;0.20;;;;;;;12.09;39.16;99691.06;5125590;27;20070;-74
2023/04/30 10:19:41;;;;;;;0.20;0.20;;;;;;;12.04;39.41;99688.38;5125041;27;20055;-74
2023/04/30 10:22:09;;;;;;;0.20;0.20;;;;;;;12.08;39.34;99699.59;5120885;27;20043;-74
2023/04/30 10:24:37;;;;;;;0.20;0.20;;;;;;;12.12;39.28;99693.25;5125919;27;20049;-74
2023/04/30 10:27:06;;;;;;;0.28;0.28;;;;;;;12.12;39.34;99696.00;5112267;27;20327;-74
2023/04/30 10:29:38;;;;;;;0.30;0.30;;;;;;;12.11;39.03;99699.84;5098875;27;20047;-73
2023/04/30 10:32:06;;;;;;;0.20;0.20;;;;;;;12.07;39.43;99696.00;5078672;27;20031;-75
2023/04/30 10:34:54;;;;;;;0.20;0.20;;;;;;;12.02;39.17;99688.69;5123743;27;20047;-76
2023/04/30 10:37:33;;;;;;;0.20;0.20;;;;;;;12.14;39.23;99679.25;5121667;27;20521;-76
2023/04/30 10:40:01;;;;;;;0.20;0.20;;;;;;;12.20;39.10;99686.31;5123903;27;20498;-76
2023/04/30 10:42:34;;;;;;;0.30;0.30;;;;;;;12.37;38.73;99691.34;5094466;27;20054;-76
2023/04/30 10:45:02;;;;;;;0.28;0.28;;;;;;;12.57;38.49;99686.78;5121270;27;20042;-77
2023/04/30 10:47:31;;;;;;;0.25;0.25;;;;;;;12.66;38.38;99696.00;5114470;27;20039;-77
2023/04/30 10:50:02;;;;;;;0.20;0.20;;;;;;;12.78;38.33;99701.06;5123438;27;20050;-77
2023/04/30 10:52:30;;;;;;;0.20;0.20;;;;;;;12.80;38.17;99690.63;5127009;27;20604;-77
2023/04/30 10:54:56;;;;;;;0.30;0.30;;;;;;;12.81;37.99;99689.53;5124803;27;20090;-77
2023/04/30 10:57:23;;;;;;;0.20;0.20;;;;;;;12.82;38.17;99676.63;5122687;27;20043;-77
2023/04/30 11:00:15;;;;;;;0.20;0.20;;;;;;;12.66;38.04;99693.25;5112085;27;20051;-77
2023/04/30 11:02:43;;;;;;;0.30;0.30;;;;;;;12.58;38.70;99691.16;5111757;27;20043;-76
2023/04/30 11:05:12;;;;;;;0.30;0.30;;;;;;;12.60;38.79;99697.16;5095653;27;20035;-77
2023/04/30 11:07:49;;;;;;;0.30;0.30;;;;;;;12.55;38.77;99686.22;5129470;27;20043;-76
2023/04/30 11:10:19;;;;;;;0.25;0.25;;;;;;;12.34;38.52;99665.34;5133780;27;20047;-76
2023/04/30 11:12:51;;;;;;;0.20;0.20;;;;;;;12.41;38.87;99675.97;5119289;27;20051;-76
2023/04/30 11:15:20;;;;;;;0.20;0.20;;;;;;;12.40;39.15;99676.25;5131580;27;20527;-76
2023/04/30 11:17:48;;;;;;;0.25;0.25;;;;;;;12.49;39.04;99669.03;5121986;27;20043;-76
2023/04/30 11:20:19;;;;;;;0.20;0.20;;;;;;;12.53;39.24;99656.38;5122369;27;20047;-76
2023/04/30 11:22:45;;;;;;;0.20;0.20;;;;;;;12.59;39.00;99640.69;5111503;27;20323;-76
2023/04/30 11:25:17;;;;;;;0.30;0.30;;;;;;;12.68;39.35;99640.84;5121300;27;20693;-77
2023/04/30 11:27:44;;;;;;;0.20;0.20;;;;;;;12.72;38.82;99612.56;5119662;27;20734;-76
2023/04/30 11:30:13;;;;;;;0.30;0.30;;;;;;;13.00;38.44;99611.91;5106048;27;20042;-75
2023/04/30 11:32:44;;;;;;;0.30;0.30;;;;;;;13.24;38.07;99605.50;5121090;27;20053;-74
2023/04/30 11:35:11;;;;;;;0.30;0.30;;;;;;;13.37;37.60;99602.03;5125852;27;20092;-75
2023/04/30 11:37:44;;;;;;;0.30;0.30;;;;;;;13.38;37.52;99595.41;5122443;27;20138;-75